sensor_id;sensor_type;location;lat;lon;timestamp;P1;durP1;ratioP1;P2;durP2;ratioP2
35518;SDS011;21627;48.216;16.482;2023-11-18T00:00:02;3.47;;;1.85;;
35518;SDS011;21627;48.216;16.482;2023-11-18T00:02:38;2.30;;;1.70;;
35518;SDS011;21627;48.216;16.482;2023-11-18T00:05:06;1.75;;;1.58;;
35518;SDS011;21627;48.216;16.482;2023-11-18T00:07:34;2.55;;;1.80;;
35518;SDS011;21627;48.216;16.482;2023-11-18T00:10:01;4.80;;;1.85;;
35518;SDS011;21627;48.216;16.482;2023-11-18T00:12:30;3.30;;;2.08;;
35518;SDS011;21627;48.216;16.482;2023-11-18T00:14:57;4.20;;;2.38;;
35518;SDS011;21627;48.216;16.482;2023-11-18T00:17:24;2.50;;;1.92;;
35518;SDS011;21627;48.216;16.482;2023-11-18T00:19:52;9.00;;;1.85;;
35518;SDS011;21627;48.216;16.482;2023-11-18T00:22:20;2.50;;;1.90;;
35518;SDS011;21627;48.216;16.482;2023-11-18T00:24:47;3.73;;;2.20;;
35518;SDS011;21627;48.216;16.482;2023-11-18T00:27:15;3.97;;;2.40;;
35518;SDS011;21627;48.216;16.482;2023-11-18T00:29:42;2.53;;;2.00;;
35518;SDS011;21627;48.216;16.482;2023-11-18T00:32:10;5.07;;;2.17;;
35518;SDS011;21627;48.216;16.482;2023-11-18T00:34:37;3.23;;;2.00;;
35518;SDS011;21627;48.216;16.482;2023-11-18T00:37:05;2.75;;;1.92;;
35518;SDS011;21627;48.216;16.482;2023-11-18T00:39:33;3.35;;;2.13;;
35518;SDS011;21627;48.216;16.482;2023-11-18T00:42:01;6.95;;;2.38;;
35518;SDS011;21627;48.216;16.482;2023-11-18T00:44:28;6.57;;;2.15;;
35518;SDS011;21627;48.216;16.482;2023-11-18T00:46:55;5.38;;;2.22;;
35518;SDS011;21627;48.216;16.482;2023-11-18T00:49:24;2.60;;;1.80;;
35518;SDS011;21627;48.216;16.482;2023-11-18T00:51:52;3.63;;;2.00;;
35518;SDS011;21627;48.216;16.482;2023-11-18T00:54:19;2.60;;;1.90;;
35518;SDS011;21627;48.216;16.482;2023-11-18T00:56:46;3.97;;;2.20;;
35518;SDS011;21627;48.216;16.482;2023-11-18T00:59:13;4.72;;;2.00;;
35518;SDS011;21627;48.216;16.482;2023-11-18T01:01:41;3.88;;;2.20;;
35518;SDS011;21627;48.216;16.482;2023-11-18T01:04:09;2.25;;;1.67;;
35518;SDS011;21627;48.216;16.482;2023-11-18T01:06:36;2.47;;;2.10;;
35518;SDS011;21627;48.216;16.482;2023-11-18T01:09:03;3.15;;;2.00;;
35518;SDS011;21627;48.216;16.482;2023-11-18T01:11:30;3.97;;;2.03;;
35518;SDS011;21627;48.216;16.482;2023-11-18T01:13:57;4.53;;;1.83;;
35518;SDS011;21627;48.216;16.482;2023-11-18T01:16:24;4.22;;;2.03;;
35518;SDS011;21627;48.216;16.482;2023-11-18T01:18:51;3.20;;;2.10;;
35518;SDS011;21627;48.216;16.482;2023-11-18T01:21:19;3.42;;;2.17;;
35518;SDS011;21627;48.216;16.482;2023-11-18T01:23:46;5.47;;;1.63;;
35518;SDS011;21627;48.216;16.482;2023-11-18T01:26:15;2.97;;;1.80;;
35518;SDS011;21627;48.216;16.482;2023-11-18T01:28:42;3.05;;;2.10;;
35518;SDS011;21627;48.216;16.482;2023-11-18T01:31:10;4.13;;;1.95;;
35518;SDS011;21627;48.216;16.482;2023-11-18T01:33:38;2.65;;;1.70;;
35518;SDS011;21627;48.216;16.482;2023-11-18T01:36:07;3.28;;;1.95;;
35518;SDS011;21627;48.216;16.482;2023-11-18T01:38:35;6.55;;;2.00;;
35518;SDS011;21627;48.216;16.482;2023-11-18T01:41:06;2.50;;;1.80;;
35518;SDS011;21627;48.216;16.482;2023-11-18T01:43:35;2.08;;;1.80;;
35518;SDS011;21627;48.216;16.482;2023-11-18T01:46:03;2.67;;;1.90;;
35518;SDS011;21627;48.216;16.482;2023-11-18T01:48:37;4.13;;;2.30;;
35518;SDS011;21627;48.216;16.482;2023-11-18T01:51:04;3.10;;;2.22;;
35518;SDS011;21627;48.216;16.482;2023-11-18T01:53:34;3.83;;;2.22;;
35518;SDS011;21627;48.216;16.482;2023-11-18T01:56:05;2.92;;;1.70;;
35518;SDS011;21627;48.216;16.482;2023-11-18T01:58:35;6.70;;;2.65;;
35518;SDS011;21627;48.216;16.482;2023-11-18T02:01:03;2.22;;;2.00;;
35518;SDS011;21627;48.216;16.482;2023-11-18T02:03:34;3.25;;;2.13;;
35518;SDS011;21627;48.216;16.482;2023-11-18T02:06:02;5.22;;;2.03;;
35518;SDS011;21627;48.216;16.482;2023-11-18T02:08:33;7.65;;;2.53;;
35518;SDS011;21627;48.216;16.482;2023-11-18T02:13:48;4.80;;;2.30;;
35518;SDS011;21627;48.216;16.482;2023-11-18T02:16:20;2.42;;;2.08;;
35518;SDS011;21627;48.216;16.482;2023-11-18T02:18:48;4.40;;;2.40;;
35518;SDS011;21627;48.216;16.482;2023-11-18T02:21:18;2.28;;;2.00;;
35518;SDS011;21627;48.216;16.482;2023-11-18T02:23:47;3.97;;;2.20;;
35518;SDS011;21627;48.216;16.482;2023-11-18T02:26:20;5.53;;;2.40;;
35518;SDS011;21627;48.216;16.482;2023-11-18T02:28:49;4.57;;;2.13;;
35518;SDS011;21627;48.216;16.482;2023-11-18T02:31:17;4.07;;;2.17;;
35518;SDS011;21627;48.216;16.482;2023-11-18T02:33:55;9.40;;;2.13;;
35518;SDS011;21627;48.216;16.482;2023-11-18T02:36:39;3.88;;;2.20;;
35518;SDS011;21627;48.216;16.482;2023-11-18T02:39:12;3.83;;;2.42;;
35518;SDS011;21627;48.216;16.482;2023-11-18T02:41:49;5.57;;;2.97;;
35518;SDS011;21627;48.216;16.482;2023-11-18T02:44:23;4.18;;;2.38;;
35518;SDS011;21627;48.216;16.482;2023-11-18T02:46:52;3.33;;;2.20;;
35518;SDS011;21627;48.216;16.482;2023-11-18T02:49:19;3.63;;;2.17;;
35518;SDS011;21627;48.216;16.482;2023-11-18T02:51:46;4.20;;;2.60;;
35518;SDS011;21627;48.216;16.482;2023-11-18T02:54:14;2.65;;;2.35;;
35518;SDS011;21627;48.216;16.482;2023-11-18T02:56:42;3.42;;;2.45;;
35518;SDS011;21627;48.216;16.482;2023-11-18T02:59:10;5.32;;;2.25;;
35518;SDS011;21627;48.216;16.482;2023-11-18T03:01:37;4.00;;;2.30;;
35518;SDS011;21627;48.216;16.482;2023-11-18T03:04:05;2.72;;;2.35;;
35518;SDS011;21627;48.216;16.482;2023-11-18T03:06:34;3.70;;;2.50;;
35518;SDS011;21627;48.216;16.482;2023-11-18T03:09:02;3.37;;;2.17;;
35518;SDS011;21627;48.216;16.482;2023-11-18T03:11:33;4.07;;;2.25;;
35518;SDS011;21627;48.216;16.482;2023-11-18T03:14:01;3.37;;;2.23;;
35518;SDS011;21627;48.216;16.482;2023-11-18T03:16:31;4.15;;;2.58;;
35518;SDS011;21627;48.216;16.482;2023-11-18T03:18:58;3.05;;;2.28;;
35518;SDS011;21627;48.216;16.482;2023-11-18T03:21:25;7.50;;;2.15;;
35518;SDS011;21627;48.216;16.482;2023-11-18T03:23:53;5.13;;;2.20;;
35518;SDS011;21627;48.216;16.482;2023-11-18T03:26:20;3.97;;;2.50;;
35518;SDS011;21627;48.216;16.482;2023-11-18T03:28:47;8.20;;;2.53;;
35518;SDS011;21627;48.216;16.482;2023-11-18T03:31:14;3.15;;;2.33;;
35518;SDS011;21627;48.216;16.482;2023-11-18T03:33:42;3.55;;;2.22;;
35518;SDS011;21627;48.216;16.482;2023-11-18T03:36:09;2.83;;;2.40;;
35518;SDS011;21627;48.216;16.482;2023-11-18T03:38:38;4.15;;;2.38;;
35518;SDS011;21627;48.216;16.482;2023-11-18T03:41:06;3.23;;;2.07;;
35518;SDS011;21627;48.216;16.482;2023-11-18T03:43:35;4.80;;;2.10;;
35518;SDS011;21627;48.216;16.482;2023-11-18T03:46:04;2.85;;;2.28;;
35518;SDS011;21627;48.216;16.482;2023-11-18T03:48:31;2.17;;;1.98;;
35518;SDS011;21627;48.216;16.482;2023-11-18T03:50:59;3.20;;;2.10;;
35518;SDS011;21627;48.216;16.482;2023-11-18T03:53:27;4.38;;;2.25;;
35518;SDS011;21627;48.216;16.482;2023-11-18T03:55:54;2.33;;;1.83;;
35518;SDS011;21627;48.216;16.482;2023-11-18T03:58:21;3.90;;;2.00;;
35518;SDS011;21627;48.216;16.482;2023-11-18T04:00:49;2.50;;;2.10;;
35518;SDS011;21627;48.216;16.482;2023-11-18T04:03:16;3.40;;;1.83;;
35518;SDS011;21627;48.216;16.482;2023-11-18T04:05:43;4.15;;;2.25;;
35518;SDS011;21627;48.216;16.482;2023-11-18T04:08:10;2.50;;;2.17;;
35518;SDS011;21627;48.216;16.482;2023-11-18T04:10:38;4.60;;;1.95;;
35518;SDS011;21627;48.216;16.482;2023-11-18T04:13:05;2.85;;;1.92;;
35518;SDS011;21627;48.216;16.482;2023-11-18T04:15:32;2.80;;;1.92;;
35518;SDS011;21627;48.216;16.482;2023-11-18T04:18:01;4.20;;;2.13;;
35518;SDS011;21627;48.216;16.482;2023-11-18T04:20:29;2.20;;;1.77;;
35518;SDS011;21627;48.216;16.482;2023-11-18T04:22:56;3.53;;;2.40;;
35518;SDS011;21627;48.216;16.482;2023-11-18T04:25:23;5.35;;;2.03;;
35518;SDS011;21627;48.216;16.482;2023-11-18T04:27:51;4.10;;;2.15;;
35518;SDS011;21627;48.216;16.482;2023-11-18T04:30:18;2.72;;;1.95;;
35518;SDS011;21627;48.216;16.482;2023-11-18T04:32:47;2.15;;;1.95;;
35518;SDS011;21627;48.216;16.482;2023-11-18T04:35:14;3.63;;;2.03;;
35518;SDS011;21627;48.216;16.482;2023-11-18T04:37:41;2.65;;;2.00;;
35518;SDS011;21627;48.216;16.482;2023-11-18T04:40:10;5.85;;;2.20;;
35518;SDS011;21627;48.216;16.482;2023-11-18T04:42:38;3.63;;;2.10;;
35518;SDS011;21627;48.216;16.482;2023-11-18T04:45:06;3.15;;;1.77;;
35518;SDS011;21627;48.216;16.482;2023-11-18T04:47:36;2.75;;;1.90;;
35518;SDS011;21627;48.216;16.482;2023-11-18T04:50:05;2.33;;;1.63;;
35518;SDS011;21627;48.216;16.482;2023-11-18T04:52:34;2.40;;;2.08;;
35518;SDS011;21627;48.216;16.482;2023-11-18T04:55:03;4.22;;;2.90;;
35518;SDS011;21627;48.216;16.482;2023-11-18T04:57:32;3.10;;;1.80;;
35518;SDS011;21627;48.216;16.482;2023-11-18T05:00:00;1.98;;;1.70;;
35518;SDS011;21627;48.216;16.482;2023-11-18T05:02:40;4.55;;;2.47;;
35518;SDS011;21627;48.216;16.482;2023-11-18T05:05:08;3.25;;;1.67;;
35518;SDS011;21627;48.216;16.482;2023-11-18T05:07:35;3.00;;;1.80;;
35518;SDS011;21627;48.216;16.482;2023-11-18T05:10:04;4.15;;;1.77;;
35518;SDS011;21627;48.216;16.482;2023-11-18T05:12:34;3.65;;;2.00;;
35518;SDS011;21627;48.216;16.482;2023-11-18T05:15:03;2.60;;;2.10;;
35518;SDS011;21627;48.216;16.482;2023-11-18T05:17:33;3.28;;;2.00;;
35518;SDS011;21627;48.216;16.482;2023-11-18T05:20:05;2.72;;;2.10;;
35518;SDS011;21627;48.216;16.482;2023-11-18T05:22:35;4.30;;;2.08;;
35518;SDS011;21627;48.216;16.482;2023-11-18T05:25:03;2.53;;;1.98;;
35518;SDS011;21627;48.216;16.482;2023-11-18T05:27:31;6.30;;;1.98;;
35518;SDS011;21627;48.216;16.482;2023-11-18T05:29:58;3.63;;;2.20;;
35518;SDS011;21627;48.216;16.482;2023-11-18T05:32:28;3.83;;;2.35;;
35518;SDS011;21627;48.216;16.482;2023-11-18T05:34:56;3.15;;;2.42;;
35518;SDS011;21627;48.216;16.482;2023-11-18T05:37:24;2.88;;;2.58;;
35518;SDS011;21627;48.216;16.482;2023-11-18T05:39:54;2.90;;;2.08;;
35518;SDS011;21627;48.216;16.482;2023-11-18T05:42:26;2.10;;;1.88;;
35518;SDS011;21627;48.216;16.482;2023-11-18T05:44:57;3.05;;;2.17;;
35518;SDS011;21627;48.216;16.482;2023-11-18T05:47:26;4.32;;;2.00;;
35518;SDS011;21627;48.216;16.482;2023-11-18T05:49:53;3.03;;;2.40;;
35518;SDS011;21627;48.216;16.482;2023-11-18T05:52:22;2.88;;;2.10;;
35518;SDS011;21627;48.216;16.482;2023-11-18T05:54:49;3.33;;;2.45;;
35518;SDS011;21627;48.216;16.482;2023-11-18T05:57:16;4.43;;;2.60;;
35518;SDS011;21627;48.216;16.482;2023-11-18T05:59:44;2.30;;;2.08;;
35518;SDS011;21627;48.216;16.482;2023-11-18T06:02:14;5.05;;;2.40;;
35518;SDS011;21627;48.216;16.482;2023-11-18T06:04:45;3.53;;;2.00;;
35518;SDS011;21627;48.216;16.482;2023-11-18T06:07:13;5.78;;;2.10;;
35518;SDS011;21627;48.216;16.482;2023-11-18T06:09:41;2.08;;;1.88;;
35518;SDS011;21627;48.216;16.482;2023-11-18T06:12:10;3.03;;;1.92;;
35518;SDS011;21627;48.216;16.482;2023-11-18T06:14:37;3.30;;;2.20;;
35518;SDS011;21627;48.216;16.482;2023-11-18T06:17:04;5.10;;;2.40;;
35518;SDS011;21627;48.216;16.482;2023-11-18T06:19:34;3.92;;;2.20;;
35518;SDS011;21627;48.216;16.482;2023-11-18T06:22:02;4.35;;;2.50;;
35518;SDS011;21627;48.216;16.482;2023-11-18T06:24:29;2.60;;;2.00;;
35518;SDS011;21627;48.216;16.482;2023-11-18T06:26:56;4.45;;;3.47;;
35518;SDS011;21627;48.216;16.482;2023-11-18T06:29:26;3.35;;;2.05;;
35518;SDS011;21627;48.216;16.482;2023-11-18T06:31:55;4.53;;;2.28;;
35518;SDS011;21627;48.216;16.482;2023-11-18T06:34:23;2.75;;;2.22;;
35518;SDS011;21627;48.216;16.482;2023-11-18T06:36:50;7.63;;;2.58;;
35518;SDS011;21627;48.216;16.482;2023-11-18T06:39:17;8.50;;;2.88;;
35518;SDS011;21627;48.216;16.482;2023-11-18T06:41:45;3.40;;;2.42;;
35518;SDS011;21627;48.216;16.482;2023-11-18T06:44:17;3.50;;;2.42;;
35518;SDS011;21627;48.216;16.482;2023-11-18T06:46:50;6.03;;;2.97;;
35518;SDS011;21627;48.216;16.482;2023-11-18T06:49:20;3.38;;;2.67;;
35518;SDS011;21627;48.216;16.482;2023-11-18T06:51:47;3.20;;;2.20;;
35518;SDS011;21627;48.216;16.482;2023-11-18T06:54:14;3.00;;;2.55;;
35518;SDS011;21627;48.216;16.482;2023-11-18T06:56:41;2.95;;;2.22;;
35518;SDS011;21627;48.216;16.482;2023-11-18T06:59:10;3.92;;;2.80;;
35518;SDS011;21627;48.216;16.482;2023-11-18T07:01:40;6.45;;;2.65;;
35518;SDS011;21627;48.216;16.482;2023-11-18T07:04:09;4.03;;;2.55;;
35518;SDS011;21627;48.216;16.482;2023-11-18T07:06:37;4.68;;;2.65;;
35518;SDS011;21627;48.216;16.482;2023-11-18T07:09:09;3.55;;;2.78;;
35518;SDS011;21627;48.216;16.482;2023-11-18T07:11:44;5.07;;;2.70;;
35518;SDS011;21627;48.216;16.482;2023-11-18T07:14:13;7.15;;;3.10;;
35518;SDS011;21627;48.216;16.482;2023-11-18T07:16:44;4.45;;;2.50;;
35518;SDS011;21627;48.216;16.482;2023-11-18T07:19:12;2.60;;;2.38;;
35518;SDS011;21627;48.216;16.482;2023-11-18T07:24:15;3.58;;;2.72;;
35518;SDS011;21627;48.216;16.482;2023-11-18T07:26:44;3.38;;;2.40;;
35518;SDS011;21627;48.216;16.482;2023-11-18T07:29:12;4.85;;;2.85;;
35518;SDS011;21627;48.216;16.482;2023-11-18T07:31:39;4.47;;;2.75;;
35518;SDS011;21627;48.216;16.482;2023-11-18T07:34:06;3.97;;;2.90;;
35518;SDS011;21627;48.216;16.482;2023-11-18T07:36:33;5.30;;;3.28;;
35518;SDS011;21627;48.216;16.482;2023-11-18T07:39:01;3.15;;;2.83;;
35518;SDS011;21627;48.216;16.482;2023-11-18T07:41:32;5.45;;;3.58;;
35518;SDS011;21627;48.216;16.482;2023-11-18T07:43:59;3.88;;;2.95;;
35518;SDS011;21627;48.216;16.482;2023-11-18T07:46:28;3.50;;;2.67;;
35518;SDS011;21627;48.216;16.482;2023-11-18T07:48:57;4.22;;;3.13;;
35518;SDS011;21627;48.216;16.482;2023-11-18T07:51:24;5.10;;;3.40;;
35518;SDS011;21627;48.216;16.482;2023-11-18T07:53:52;4.22;;;3.08;;
35518;SDS011;21627;48.216;16.482;2023-11-18T07:56:19;4.95;;;3.17;;
35518;SDS011;21627;48.216;16.482;2023-11-18T07:58:49;5.20;;;2.80;;
35518;SDS011;21627;48.216;16.482;2023-11-18T08:01:18;3.38;;;2.90;;
35518;SDS011;21627;48.216;16.482;2023-11-18T08:03:47;3.70;;;2.88;;
35518;SDS011;21627;48.216;16.482;2023-11-18T08:06:15;2.97;;;2.60;;
35518;SDS011;21627;48.216;16.482;2023-11-18T08:08:43;5.07;;;2.80;;
35518;SDS011;21627;48.216;16.482;2023-11-18T08:11:11;4.30;;;3.08;;
35518;SDS011;21627;48.216;16.482;2023-11-18T08:13:39;4.63;;;3.08;;
35518;SDS011;21627;48.216;16.482;2023-11-18T08:16:06;3.70;;;2.63;;
35518;SDS011;21627;48.216;16.482;2023-11-18T08:18:35;3.72;;;2.83;;
35518;SDS011;21627;48.216;16.482;2023-11-18T08:21:03;4.03;;;3.03;;
35518;SDS011;21627;48.216;16.482;2023-11-18T08:23:33;4.60;;;2.97;;
35518;SDS011;21627;48.216;16.482;2023-11-18T08:26:00;3.67;;;2.97;;
35518;SDS011;21627;48.216;16.482;2023-11-18T08:28:28;3.53;;;2.63;;
35518;SDS011;21627;48.216;16.482;2023-11-18T08:30:55;3.15;;;2.50;;
35518;SDS011;21627;48.216;16.482;2023-11-18T08:33:22;3.80;;;2.55;;
35518;SDS011;21627;48.216;16.482;2023-11-18T08:35:50;3.08;;;2.13;;
35518;SDS011;21627;48.216;16.482;2023-11-18T08:38:18;2.30;;;2.10;;
35518;SDS011;21627;48.216;16.482;2023-11-18T08:40:46;3.13;;;2.22;;
35518;SDS011;21627;48.216;16.482;2023-11-18T08:43:15;3.65;;;2.38;;
35518;SDS011;21627;48.216;16.482;2023-11-18T08:45:43;5.85;;;2.13;;
35518;SDS011;21627;48.216;16.482;2023-11-18T08:48:11;6.93;;;2.45;;
35518;SDS011;21627;48.216;16.482;2023-11-18T08:50:38;3.90;;;2.13;;
35518;SDS011;21627;48.216;16.482;2023-11-18T08:53:09;3.63;;;2.30;;
35518;SDS011;21627;48.216;16.482;2023-11-18T08:55:38;3.35;;;2.58;;
35518;SDS011;21627;48.216;16.482;2023-11-18T08:58:09;4.97;;;2.38;;
35518;SDS011;21627;48.216;16.482;2023-11-18T09:01:00;3.50;;;2.33;;
35518;SDS011;21627;48.216;16.482;2023-11-18T09:03:41;4.97;;;2.22;;
35518;SDS011;21627;48.216;16.482;2023-11-18T09:06:18;4.95;;;2.05;;
35518;SDS011;21627;48.216;16.482;2023-11-18T09:08:53;2.70;;;2.22;;
35518;SDS011;21627;48.216;16.482;2023-11-18T09:11:21;2.67;;;2.15;;
35518;SDS011;21627;48.216;16.482;2023-11-18T09:13:53;4.13;;;2.55;;
35518;SDS011;21627;48.216;16.482;2023-11-18T09:16:23;5.75;;;2.72;;
35518;SDS011;21627;48.216;16.482;2023-11-18T09:18:57;4.35;;;1.83;;
35518;SDS011;21627;48.216;16.482;2023-11-18T09:21:29;2.28;;;2.05;;
35518;SDS011;21627;48.216;16.482;2023-11-18T09:24:01;2.72;;;1.92;;
35518;SDS011;21627;48.216;16.482;2023-11-18T09:26:31;2.65;;;2.08;;
35518;SDS011;21627;48.216;16.482;2023-11-18T09:28:58;3.28;;;2.10;;
35518;SDS011;21627;48.216;16.482;2023-11-18T09:31:28;3.88;;;1.80;;
35518;SDS011;21627;48.216;16.482;2023-11-18T09:33:58;2.33;;;2.00;;
35518;SDS011;21627;48.216;16.482;2023-11-18T09:36:26;4.22;;;2.08;;
35518;SDS011;21627;48.216;16.482;2023-11-18T09:38:55;2.47;;;2.25;;
35518;SDS011;21627;48.216;16.482;2023-11-18T09:41:23;4.35;;;2.40;;
35518;SDS011;21627;48.216;16.482;2023-11-18T09:43:53;5.00;;;2.50;;
35518;SDS011;21627;48.216;16.482;2023-11-18T09:46:24;4.55;;;2.20;;
35518;SDS011;21627;48.216;16.482;2023-11-18T09:52:05;3.38;;;2.20;;
35518;SDS011;21627;48.216;16.482;2023-11-18T09:54:40;3.33;;;2.42;;
35518;SDS011;21627;48.216;16.482;2023-11-18T10:00:07;7.55;;;2.47;;
35518;SDS011;21627;48.216;16.482;2023-11-18T10:02:48;4.32;;;2.53;;
35518;SDS011;21627;48.216;16.482;2023-11-18T10:05:19;3.80;;;2.60;;
35518;SDS011;21627;48.216;16.482;2023-11-18T10:07:47;3.70;;;2.75;;
35518;SDS011;21627;48.216;16.482;2023-11-18T10:10:16;4.38;;;2.70;;
35518;SDS011;21627;48.216;16.482;2023-11-18T10:12:43;5.20;;;2.80;;
35518;SDS011;21627;48.216;16.482;2023-11-18T10:15:13;3.33;;;2.50;;
35518;SDS011;21627;48.216;16.482;2023-11-18T10:17:44;6.03;;;2.88;;
35518;SDS011;21627;48.216;16.482;2023-11-18T10:20:42;3.10;;;2.45;;
35518;SDS011;21627;48.216;16.482;2023-11-18T10:23:18;4.03;;;2.60;;
35518;SDS011;21627;48.216;16.482;2023-11-18T10:25:48;3.65;;;2.67;;
35518;SDS011;21627;48.216;16.482;2023-11-18T10:28:27;5.90;;;3.33;;
35518;SDS011;21627;48.216;16.482;2023-11-18T10:30:56;4.65;;;2.70;;
35518;SDS011;21627;48.216;16.482;2023-11-18T10:33:25;5.03;;;2.95;;
35518;SDS011;21627;48.216;16.482;2023-11-18T10:35:57;6.53;;;2.85;;
35518;SDS011;21627;48.216;16.482;2023-11-18T10:38:33;5.18;;;2.80;;
35518;SDS011;21627;48.216;16.482;2023-11-18T10:41:10;3.42;;;2.90;;
35518;SDS011;21627;48.216;16.482;2023-11-18T10:43:38;5.85;;;3.30;;
35518;SDS011;21627;48.216;16.482;2023-11-18T10:46:09;4.03;;;2.97;;
35518;SDS011;21627;48.216;16.482;2023-11-18T10:48:39;6.10;;;3.13;;
35518;SDS011;21627;48.216;16.482;2023-11-18T10:51:12;6.65;;;3.60;;
35518;SDS011;21627;48.216;16.482;2023-11-18T10:53:53;3.80;;;3.00;;
35518;SDS011;21627;48.216;16.482;2023-11-18T10:56:25;4.82;;;3.28;;
35518;SDS011;21627;48.216;16.482;2023-11-18T10:59:06;4.07;;;2.90;;
35518;SDS011;21627;48.216;16.482;2023-11-18T11:01:37;5.00;;;3.20;;
35518;SDS011;21627;48.216;16.482;2023-11-18T11:04:11;3.95;;;2.92;;
35518;SDS011;21627;48.216;16.482;2023-11-18T11:06:42;3.30;;;2.40;;
35518;SDS011;21627;48.216;16.482;2023-11-18T11:09:19;3.20;;;2.63;;
35518;SDS011;21627;48.216;16.482;2023-11-18T11:11:54;5.05;;;3.03;;
35518;SDS011;21627;48.216;16.482;2023-11-18T11:14:33;3.80;;;3.15;;
35518;SDS011;21627;48.216;16.482;2023-11-18T11:17:08;3.45;;;2.63;;
35518;SDS011;21627;48.216;16.482;2023-11-18T11:19:55;4.65;;;3.00;;
35518;SDS011;21627;48.216;16.482;2023-11-18T11:28:42;3.33;;;2.88;;
35518;SDS011;21627;48.216;16.482;2023-11-18T11:31:35;4.50;;;3.20;;
35518;SDS011;21627;48.216;16.482;2023-11-18T11:34:06;3.92;;;3.15;;
35518;SDS011;21627;48.216;16.482;2023-11-18T11:36:47;5.47;;;3.28;;
35518;SDS011;21627;48.216;16.482;2023-11-18T11:39:18;5.88;;;3.97;;
35518;SDS011;21627;48.216;16.482;2023-11-18T11:41:52;4.60;;;3.33;;
35518;SDS011;21627;48.216;16.482;2023-11-18T11:44:23;4.40;;;3.90;;
35518;SDS011;21627;48.216;16.482;2023-11-18T11:46:57;4.47;;;3.22;;
35518;SDS011;21627;48.216;16.482;2023-11-18T11:49:33;4.18;;;3.58;;
35518;SDS011;21627;48.216;16.482;2023-11-18T11:52:10;4.57;;;3.78;;
35518;SDS011;21627;48.216;16.482;2023-11-18T11:57:55;6.30;;;3.78;;
35518;SDS011;21627;48.216;16.482;2023-11-18T12:00:27;6.55;;;3.83;;
35518;SDS011;21627;48.216;16.482;2023-11-18T12:03:01;4.82;;;3.40;;
35518;SDS011;21627;48.216;16.482;2023-11-18T12:05:31;5.70;;;4.18;;
35518;SDS011;21627;48.216;16.482;2023-11-18T12:08:00;6.25;;;3.33;;
35518;SDS011;21627;48.216;16.482;2023-11-18T12:10:30;5.80;;;3.70;;
35518;SDS011;21627;48.216;16.482;2023-11-18T12:13:06;5.47;;;3.70;;
35518;SDS011;21627;48.216;16.482;2023-11-18T12:15:49;5.93;;;4.43;;
35518;SDS011;21627;48.216;16.482;2023-11-18T12:18:30;6.25;;;3.83;;
35518;SDS011;21627;48.216;16.482;2023-11-18T12:21:03;5.05;;;4.13;;
35518;SDS011;21627;48.216;16.482;2023-11-18T12:23:31;7.75;;;4.30;;
35518;SDS011;21627;48.216;16.482;2023-11-18T12:26:01;8.35;;;4.13;;
35518;SDS011;21627;48.216;16.482;2023-11-18T12:28:30;6.82;;;3.88;;
35518;SDS011;21627;48.216;16.482;2023-11-18T12:31:02;5.90;;;4.13;;
35518;SDS011;21627;48.216;16.482;2023-11-18T12:42:58;6.78;;;4.00;;
35518;SDS011;21627;48.216;16.482;2023-11-18T12:48:26;6.07;;;4.00;;
35518;SDS011;21627;48.216;16.482;2023-11-18T12:50:58;5.00;;;3.05;;
35518;SDS011;21627;48.216;16.482;2023-11-18T12:53:26;4.32;;;3.22;;
35518;SDS011;21627;48.216;16.482;2023-11-18T12:55:54;4.07;;;3.20;;
35518;SDS011;21627;48.216;16.482;2023-11-18T12:58:25;5.07;;;3.45;;
35518;SDS011;21627;48.216;16.482;2023-11-18T13:00:52;4.90;;;3.20;;
35518;SDS011;21627;48.216;16.482;2023-11-18T13:03:20;6.63;;;3.63;;
35518;SDS011;21627;48.216;16.482;2023-11-18T13:05:47;5.97;;;3.03;;
35518;SDS011;21627;48.216;16.482;2023-11-18T13:08:18;3.55;;;2.97;;
35518;SDS011;21627;48.216;16.482;2023-11-18T13:10:49;4.72;;;2.90;;
35518;SDS011;21627;48.216;16.482;2023-11-18T13:13:16;4.10;;;2.72;;
35518;SDS011;21627;48.216;16.482;2023-11-18T13:15:46;3.92;;;2.92;;
35518;SDS011;21627;48.216;16.482;2023-11-18T13:18:17;3.55;;;2.58;;
35518;SDS011;21627;48.216;16.482;2023-11-18T13:20:54;6.05;;;2.83;;
35518;SDS011;21627;48.216;16.482;2023-11-18T13:23:24;3.15;;;2.80;;
35518;SDS011;21627;48.216;16.482;2023-11-18T13:25:58;3.90;;;2.97;;
35518;SDS011;21627;48.216;16.482;2023-11-18T13:28:26;5.50;;;3.05;;
35518;SDS011;21627;48.216;16.482;2023-11-18T13:30:54;4.53;;;3.17;;
35518;SDS011;21627;48.216;16.482;2023-11-18T13:33:21;3.63;;;3.03;;
35518;SDS011;21627;48.216;16.482;2023-11-18T13:35:49;7.97;;;3.30;;
35518;SDS011;21627;48.216;16.482;2023-11-18T13:38:17;3.92;;;2.97;;
35518;SDS011;21627;48.216;16.482;2023-11-18T13:40:45;7.28;;;3.72;;
35518;SDS011;21627;48.216;16.482;2023-11-18T13:43:14;7.47;;;4.28;;
35518;SDS011;21627;48.216;16.482;2023-11-18T13:45:41;6.40;;;3.50;;
35518;SDS011;21627;48.216;16.482;2023-11-18T13:48:12;4.22;;;3.38;;
35518;SDS011;21627;48.216;16.482;2023-11-18T13:50:43;6.25;;;3.20;;
35518;SDS011;21627;48.216;16.482;2023-11-18T13:53:11;3.92;;;3.10;;
35518;SDS011;21627;48.216;16.482;2023-11-18T13:55:39;3.65;;;2.92;;
35518;SDS011;21627;48.216;16.482;2023-11-18T13:58:06;3.42;;;2.60;;
35518;SDS011;21627;48.216;16.482;2023-11-18T14:00:37;3.65;;;2.60;;
35518;SDS011;21627;48.216;16.482;2023-11-18T14:03:04;3.65;;;2.45;;
35518;SDS011;21627;48.216;16.482;2023-11-18T14:05:34;4.75;;;2.33;;
35518;SDS011;21627;48.216;16.482;2023-11-18T14:08:02;2.75;;;2.42;;
35518;SDS011;21627;48.216;16.482;2023-11-18T14:10:36;3.47;;;2.47;;
35518;SDS011;21627;48.216;16.482;2023-11-18T14:13:06;2.53;;;1.92;;
35518;SDS011;21627;48.216;16.482;2023-11-18T14:15:35;3.80;;;2.38;;
35518;SDS011;21627;48.216;16.482;2023-11-18T14:18:03;3.67;;;2.25;;
35518;SDS011;21627;48.216;16.482;2023-11-18T14:20:32;3.28;;;1.98;;
35518;SDS011;21627;48.216;16.482;2023-11-18T14:22:59;3.47;;;2.45;;
35518;SDS011;21627;48.216;16.482;2023-11-18T14:25:26;3.13;;;2.35;;
35518;SDS011;21627;48.216;16.482;2023-11-18T14:27:53;3.00;;;2.40;;
35518;SDS011;21627;48.216;16.482;2023-11-18T14:30:20;4.75;;;2.88;;
35518;SDS011;21627;48.216;16.482;2023-11-18T14:32:53;4.18;;;2.40;;
35518;SDS011;21627;48.216;16.482;2023-11-18T14:35:21;3.03;;;2.65;;
35518;SDS011;21627;48.216;16.482;2023-11-18T14:37:50;3.50;;;2.75;;
35518;SDS011;21627;48.216;16.482;2023-11-18T14:40:17;6.95;;;3.05;;
35518;SDS011;21627;48.216;16.482;2023-11-18T14:42:46;3.25;;;2.55;;
35518;SDS011;21627;48.216;16.482;2023-11-18T14:45:17;3.70;;;2.90;;
35518;SDS011;21627;48.216;16.482;2023-11-18T14:47:44;7.50;;;3.50;;
35518;SDS011;21627;48.216;16.482;2023-11-18T14:50:14;9.52;;;3.97;;
35518;SDS011;21627;48.216;16.482;2023-11-18T14:52:46;6.07;;;3.42;;
35518;SDS011;21627;48.216;16.482;2023-11-18T14:55:17;4.72;;;3.47;;
35518;SDS011;21627;48.216;16.482;2023-11-18T14:57:44;7.47;;;3.58;;
35518;SDS011;21627;48.216;16.482;2023-11-18T15:00:13;4.55;;;3.33;;
35518;SDS011;21627;48.216;16.482;2023-11-18T15:02:49;4.22;;;3.38;;
35518;SDS011;21627;48.216;16.482;2023-11-18T15:05:19;4.50;;;3.53;;
35518;SDS011;21627;48.216;16.482;2023-11-18T15:07:49;3.92;;;3.33;;
35518;SDS011;21627;48.216;16.482;2023-11-18T15:10:18;10.32;;;3.42;;
35518;SDS011;21627;48.216;16.482;2023-11-18T15:12:48;3.80;;;3.40;;
35518;SDS011;21627;48.216;16.482;2023-11-18T15:15:25;3.22;;;2.75;;
35518;SDS011;21627;48.216;16.482;2023-11-18T15:18:02;4.15;;;3.00;;
35518;SDS011;21627;48.216;16.482;2023-11-18T15:20:34;3.38;;;3.08;;